• Join FlightAware (Why Join?)
  • Login
  • US Flag 
08:32AM EDT


 

Airport Tracker/Info


-or-


 

Live Flight TrackerFlight Track Log ✈ GJS3627 ✈ 03-Nov-2013 ✈ KORD - KMCI

Flight Track Log - Related Links

Times and Time Zones

All times are in EST time to prevent confusion due to time zone crossing. See the GJS3627 flight status page for this flight to view local times or setup timezone preferences in your user account.

Time Position Orientation Groundspeed Altitude Reporting Facility
EST Latitude Longitude Course Direction KTS MPH feet Rate Location/Type
11:40AM 42.0000 -87.9667 262° West 171 197 2,200  Level Chicago TRACON
11:41AM 41.9833 -88.0333 251° West 227 261 4,200 2,340 Climbing Chicago TRACON
11:42AM 41.9833 -88.1167 270° West 261 300 6,700 3,120 Climbing Chicago TRACON
11:43AM 41.8238 -88.3543 246° West  Level Estimated
11:44AM 41.7840 -88.4659 270° West  Level Estimated
11:44AM 41.9419 -88.2683 250° West 272 313 11,800  Level Chicago Center
11:45AM 41.7442 -88.5773 262° West  Level Estimated
11:45AM 41.9156 -88.3675 250° West 288 331 13,600  Level Chicago Center
11:47AM 41.8337 -88.5598 253° West  Level FlightAware Approximate
11:51AM 41.7511 -89.1531 241° Southwest 374 430 24,800  Level Chicago Center
11:52AM 41.7064 -89.2831 245° Southwest 388 447 26,400 1,500 Climbing Chicago Center
11:53AM 41.6600 -89.4136 245° Southwest 390 449 28,000 1,260 Climbing Chicago Center
11:54AM 41.6610 -89.3783 249° West  Level FlightAware Approximate
11:55AM 41.6210 -89.4892 242° Southwest  Level FlightAware Approximate
11:55AM 41.5625 -89.6756 244° Southwest 399 459 30,100  Level Kansas City Center
11:56AM 41.5783 -89.5984 246° West  Level FlightAware Approximate
11:56AM 41.5094 -89.8094 242° Southwest 407 468 31,100  Level Kansas City Center
11:57AM 41.5408 -89.7109 246° West  Level FlightAware Approximate
11:57AM 41.4536 -89.9439 241° Southwest 414 476 32,100  Level Kansas City Center
11:58AM 41.4974 -89.8194 241° Southwest  Level FlightAware Approximate
11:58AM 41.3981 -90.0778 241° Southwest 415 478 33,100  Level Kansas City Center
11:59AM 41.4524 -89.9268 241° Southwest  Level FlightAware Approximate
11:59AM 41.3311 -90.2350 240° Southwest 410 472 34,300  Level Kansas City Center
12:00PM 41.4073 -90.0340 241° Southwest  Level FlightAware Approximate
12:00PM 41.2758 -90.3667 241° Southwest 411 473 35,300  Level Kansas City Center
12:01PM 41.3622 -90.1410 241° Southwest  Level FlightAware Approximate
12:01PM 41.2222 -90.4947 241° Southwest 403 464 36,000  Level Kansas City Center
12:02PM 41.1689 -90.6200 241° Southwest 395 455 36,000  Level Kansas City Center
12:03PM 41.1167 -90.7439 241° Southwest 389 448 36,000  Level Kansas City Center
12:04PM 41.0525 -90.8925 240° Southwest 389 448 36,000  Level Kansas City Center
12:05PM 40.9992 -91.0189 241° Southwest 392 451 36,000  Level Kansas City Center
12:06PM 40.9447 -91.1447 240° Southwest 395 455 36,000  Level Kansas City Center
12:07PM 40.8867 -91.2814 241° Southwest 397 457 36,000  Level Kansas City Center
12:08PM 40.8308 -91.4064 239° Southwest 397 457 36,000  Level Kansas City Center
12:09PM 40.7753 -91.5303 239° Southwest 397 457 36,000 -60 Level Kansas City Center
12:10PM 40.7067 -91.6453 232° Southwest 398 458 35,900 -540 Descending Kansas City Center
12:11PM 40.6383 -91.7594 232° Southwest 399 459 34,900 -1,080 Descending Kansas City Center
12:12PM 40.5569 -91.8944 232° Southwest 396 456 33,700 -1,080 Descending Kansas City Center
12:14PM 40.4900 -92.0083 232° Southwest 395 455 32,700 -1,020 Descending Kansas City Center
12:15PM 40.4275 -92.1294 236° Southwest 401 461 31,700 -1,020 Descending Kansas City Center
12:16PM 40.3697 -92.2597 240° Southwest 410 472 30,700 -1,020 Descending Kansas City Center
12:17PM 40.3081 -92.3969 240° Southwest 424 488 29,700 -1,080 Descending Kansas City Center
12:18PM 40.2389 -92.5464 239° Southwest 429 494 28,500 -1,380 Descending Kansas City Center
12:19PM 40.1844 -92.6728 241° Southwest 420 483 26,900 -1,740 Descending Kansas City Center
12:20PM 40.1194 -92.8175 240° Southwest 416 479 25,000 -1,800 Descending Kansas City Center
12:21PM 40.0567 -92.9578 240° Southwest 425 489 23,200 -1,740 Descending Kansas City Center
12:22PM 39.9978 -93.0797 238° Southwest 407 468 21,500 -1,680 Descending Kansas City Center
12:23PM 39.9428 -93.2003 239° Southwest 393 452 19,800 -1,620 Descending Kansas City Center
12:24PM 39.8889 -93.3181 239° Southwest 385 443 18,200 -1,500 Descending Kansas City Center
12:25PM 39.8367 -93.4319 239° Southwest 373 429 16,800 -1,560 Descending Kansas City Center
12:26PM 39.7742 -93.5642 238° Southwest 363 418 15,000 -1,500 Descending Kansas City Center
12:27PM 39.7222 -93.6756 239° Southwest 364 419 13,700 -1,260 Descending Kansas City Center
12:28PM 39.6694 -93.7914 239° Southwest 338 389 12,500 -1,080 Descending Kansas City Center
12:29PM 39.6247 -93.8875 239° Southwest 323 372 11,500 -1,140 Descending Kansas City Center
12:30PM 39.5764 -94.0014 241° Southwest 322 371 10,200 -780 Descending Kansas City Center
12:31PM 39.5542 -94.1147 256° West 336 387 10,000 -360 Descending Kansas City Center
12:32PM 39.5331 -94.2086 254° West 283 326 9,500 -1,140 Descending Kansas City Center
12:33PM 39.5100 -94.3072 253° West 256 295 7,700 -1,740 Descending Kansas City Center
12:34PM 39.4914 -94.3889 254° West 248 285 6,000 -840 Descending Kansas City Center
12:35PM 39.4700 -94.4825 254° West 245 282 6,000 -420 Level Kansas City Center
12:36PM 39.4528 -94.5606 254° West 238 274 5,200 -1,260 Descending Kansas City Center
12:37PM 39.4328 -94.6494 254° West 230 265 3,500 -1,320 Descending Kansas City Center
12:38PM 39.4011 -94.6958 229° Southwest 185 213 2,500 -780 Descending Kansas City Center
12:39PM 39.3653 -94.7083 195° South 121 139 1,900 -600 Descending Kansas City Center
12:40PM 39.3333 -94.7167 191° South 120 138 1,300 -480 Descending Kansas City Center
12:41PM 39.3058 -94.7253 194° South 114 131 1,000 -300 Descending Kansas City Center